sensor_id;sensor_type;location;lat;lon;timestamp;temperature;humidity
61253;DHT22;47127;47.516;8.596;2023-05-10T00:00:13;14.10;99.90
61253;DHT22;47127;47.516;8.596;2023-05-10T00:02:39;14.00;99.90
61253;DHT22;47127;47.516;8.596;2023-05-10T00:05:05;13.90;99.90
61253;DHT22;47127;47.516;8.596;2023-05-10T00:07:30;14.00;99.90
61253;DHT22;47127;47.516;8.596;2023-05-10T00:09:56;13.90;99.90
61253;DHT22;47127;47.516;8.596;2023-05-10T00:12:21;13.90;99.90
61253;DHT22;47127;47.516;8.596;2023-05-10T00:14:47;13.90;99.90
61253;DHT22;47127;47.516;8.596;2023-05-10T00:17:13;13.90;99.90
61253;DHT22;47127;47.516;8.596;2023-05-10T00:19:38;13.90;99.90
61253;DHT22;47127;47.516;8.596;2023-05-10T00:22:04;14.00;99.90
61253;DHT22;47127;47.516;8.596;2023-05-10T00:24:29;14.00;99.90
61253;DHT22;47127;47.516;8.596;2023-05-10T00:26:55;14.00;99.90
61253;DHT22;47127;47.516;8.596;2023-05-10T00:29:20;14.00;99.90
61253;DHT22;47127;47.516;8.596;2023-05-10T00:31:46;13.90;99.90
61253;DHT22;47127;47.516;8.596;2023-05-10T00:34:12;13.90;99.90
61253;DHT22;47127;47.516;8.596;2023-05-10T00:36:37;14.00;99.90
61253;DHT22;47127;47.516;8.596;2023-05-10T00:39:03;14.00;99.90
61253;DHT22;47127;47.516;8.596;2023-05-10T00:41:29;14.00;99.90
61253;DHT22;47127;47.516;8.596;2023-05-10T00:43:57;14.00;99.90
61253;DHT22;47127;47.516;8.596;2023-05-10T00:46:22;14.00;99.90
61253;DHT22;47127;47.516;8.596;2023-05-10T00:48:48;14.00;99.90
61253;DHT22;47127;47.516;8.596;2023-05-10T00:51:14;14.00;99.90
61253;DHT22;47127;47.516;8.596;2023-05-10T00:53:40;13.90;99.90
61253;DHT22;47127;47.516;8.596;2023-05-10T00:56:06;13.90;99.90
61253;DHT22;47127;47.516;8.596;2023-05-10T00:58:31;13.90;99.90
61253;DHT22;47127;47.516;8.596;2023-05-10T01:01:01;14.00;99.90
61253;DHT22;47127;47.516;8.596;2023-05-10T01:03:27;14.10;99.90
61253;DHT22;47127;47.516;8.596;2023-05-10T01:05:53;14.00;99.90
61253;DHT22;47127;47.516;8.596;2023-05-10T01:08:19;14.00;99.90
61253;DHT22;47127;47.516;8.596;2023-05-10T01:10:45;13.90;99.90
61253;DHT22;47127;47.516;8.596;2023-05-10T01:13:11;14.00;99.90
61253;DHT22;47127;47.516;8.596;2023-05-10T01:15:38;14.10;99.90
61253;DHT22;47127;47.516;8.596;2023-05-10T01:18:05;14.10;99.90
61253;DHT22;47127;47.516;8.596;2023-05-10T01:20:37;14.10;99.90
61253;DHT22;47127;47.516;8.596;2023-05-10T01:32:00;14.10;99.90
61253;DHT22;47127;47.516;8.596;2023-05-10T01:34:35;14.10;99.90
61253;DHT22;47127;47.516;8.596;2023-05-10T01:37:21;14.10;99.90
61253;DHT22;47127;47.516;8.596;2023-05-10T01:39:52;14.10;99.90
61253;DHT22;47127;47.516;8.596;2023-05-10T01:42:23;14.20;99.90
61253;DHT22;47127;47.516;8.596;2023-05-10T01:45:28;14.10;99.90
61253;DHT22;47127;47.516;8.596;2023-05-10T01:48:09;14.10;99.90
61253;DHT22;47127;47.516;8.596;2023-05-10T01:50:37;14.20;99.90
61253;DHT22;47127;47.516;8.596;2023-05-10T01:53:06;14.20;99.90
61253;DHT22;47127;47.516;8.596;2023-05-10T01:55:35;14.10;99.90
61253;DHT22;47127;47.516;8.596;2023-05-10T01:58:22;14.10;99.90
61253;DHT22;47127;47.516;8.596;2023-05-10T02:00:50;14.10;99.90
61253;DHT22;47127;47.516;8.596;2023-05-10T02:03:20;14.10;99.90
61253;DHT22;47127;47.516;8.596;2023-05-10T02:05:48;14.20;99.90
61253;DHT22;47127;47.516;8.596;2023-05-10T02:08:15;14.20;99.90
61253;DHT22;47127;47.516;8.596;2023-05-10T02:10:43;14.20;99.90
61253;DHT22;47127;47.516;8.596;2023-05-10T02:13:10;14.20;99.90
61253;DHT22;47127;47.516;8.596;2023-05-10T02:15:38;14.30;99.90
61253;DHT22;47127;47.516;8.596;2023-05-10T02:18:06;14.20;99.90
61253;DHT22;47127;47.516;8.596;2023-05-10T02:20:32;14.20;99.90
61253;DHT22;47127;47.516;8.596;2023-05-10T02:22:59;14.20;99.90
61253;DHT22;47127;47.516;8.596;2023-05-10T02:25:27;14.20;99.90
61253;DHT22;47127;47.516;8.596;2023-05-10T02:27:55;14.20;99.90
61253;DHT22;47127;47.516;8.596;2023-05-10T02:30:22;14.10;99.90
61253;DHT22;47127;47.516;8.596;2023-05-10T02:32:49;14.10;99.90
61253;DHT22;47127;47.516;8.596;2023-05-10T02:35:16;14.10;99.90
61253;DHT22;47127;47.516;8.596;2023-05-10T02:37:42;14.10;99.90
61253;DHT22;47127;47.516;8.596;2023-05-10T02:40:10;14.10;99.90
61253;DHT22;47127;47.516;8.596;2023-05-10T02:42:37;14.10;99.90
61253;DHT22;47127;47.516;8.596;2023-05-10T02:45:12;14.10;99.90
61253;DHT22;47127;47.516;8.596;2023-05-10T02:47:38;14.00;99.90
61253;DHT22;47127;47.516;8.596;2023-05-10T02:50:04;14.00;99.90
61253;DHT22;47127;47.516;8.596;2023-05-10T02:52:39;14.00;99.90
61253;DHT22;47127;47.516;8.596;2023-05-10T02:55:06;14.00;99.90
61253;DHT22;47127;47.516;8.596;2023-05-10T02:57:33;14.00;99.90
61253;DHT22;47127;47.516;8.596;2023-05-10T03:00:00;14.00;99.90
61253;DHT22;47127;47.516;8.596;2023-05-10T03:02:26;14.00;99.90
61253;DHT22;47127;47.516;8.596;2023-05-10T03:04:52;13.90;99.90
61253;DHT22;47127;47.516;8.596;2023-05-10T03:07:17;13.90;99.90
61253;DHT22;47127;47.516;8.596;2023-05-10T03:09:47;13.90;99.90
61253;DHT22;47127;47.516;8.596;2023-05-10T03:12:27;13.90;99.90
61253;DHT22;47127;47.516;8.596;2023-05-10T03:15:32;13.80;99.90
61253;DHT22;47127;47.516;8.596;2023-05-10T03:18:13;13.80;99.90
61253;DHT22;47127;47.516;8.596;2023-05-10T03:20:47;13.90;99.90
61253;DHT22;47127;47.516;8.596;2023-05-10T03:23:25;13.90;99.90
61253;DHT22;47127;47.516;8.596;2023-05-10T03:25:52;13.90;99.90
61253;DHT22;47127;47.516;8.596;2023-05-10T03:28:18;14.00;99.90
61253;DHT22;47127;47.516;8.596;2023-05-10T03:30:46;14.00;99.90
61253;DHT22;47127;47.516;8.596;2023-05-10T03:33:12;14.00;99.90
61253;DHT22;47127;47.516;8.596;2023-05-10T03:35:38;14.00;99.90
61253;DHT22;47127;47.516;8.596;2023-05-10T03:38:04;13.90;99.90
61253;DHT22;47127;47.516;8.596;2023-05-10T03:40:30;14.00;99.90
61253;DHT22;47127;47.516;8.596;2023-05-10T03:43:00;13.90;99.90
61253;DHT22;47127;47.516;8.596;2023-05-10T03:45:26;13.90;99.90
61253;DHT22;47127;47.516;8.596;2023-05-10T03:47:52;13.90;99.90
61253;DHT22;47127;47.516;8.596;2023-05-10T03:50:18;13.90;99.90
61253;DHT22;47127;47.516;8.596;2023-05-10T03:52:44;13.90;99.90
61253;DHT22;47127;47.516;8.596;2023-05-10T03:55:10;14.00;99.90
61253;DHT22;47127;47.516;8.596;2023-05-10T03:57:35;13.90;99.90
61253;DHT22;47127;47.516;8.596;2023-05-10T04:00:02;13.90;99.90
61253;DHT22;47127;47.516;8.596;2023-05-10T04:02:28;14.00;99.90
61253;DHT22;47127;47.516;8.596;2023-05-10T04:04:55;13.80;99.90
61253;DHT22;47127;47.516;8.596;2023-05-10T04:07:20;13.90;99.90
61253;DHT22;47127;47.516;8.596;2023-05-10T04:09:46;13.90;99.90
61253;DHT22;47127;47.516;8.596;2023-05-10T04:12:12;14.00;99.90
61253;DHT22;47127;47.516;8.596;2023-05-10T04:14:38;13.90;99.90
61253;DHT22;47127;47.516;8.596;2023-05-10T04:17:03;13.80;99.90
61253;DHT22;47127;47.516;8.596;2023-05-10T04:19:30;13.80;99.90
61253;DHT22;47127;47.516;8.596;2023-05-10T04:21:55;13.80;99.90
61253;DHT22;47127;47.516;8.596;2023-05-10T04:24:21;13.80;99.90
61253;DHT22;47127;47.516;8.596;2023-05-10T04:26:47;13.90;99.90
61253;DHT22;47127;47.516;8.596;2023-05-10T04:29:13;13.80;99.90
61253;DHT22;47127;47.516;8.596;2023-05-10T04:31:39;13.80;99.90
61253;DHT22;47127;47.516;8.596;2023-05-10T04:34:04;13.90;99.90
61253;DHT22;47127;47.516;8.596;2023-05-10T04:36:30;13.90;99.90
61253;DHT22;47127;47.516;8.596;2023-05-10T04:38:58;13.80;99.90
61253;DHT22;47127;47.516;8.596;2023-05-10T04:41:23;13.80;99.90
61253;DHT22;47127;47.516;8.596;2023-05-10T04:43:50;13.80;99.90
61253;DHT22;47127;47.516;8.596;2023-05-10T04:46:15;13.80;99.90
61253;DHT22;47127;47.516;8.596;2023-05-10T04:48:41;13.80;99.90
61253;DHT22;47127;47.516;8.596;2023-05-10T04:51:06;13.80;99.90
61253;DHT22;47127;47.516;8.596;2023-05-10T04:53:32;13.80;99.90
61253;DHT22;47127;47.516;8.596;2023-05-10T04:55:58;13.80;99.90
61253;DHT22;47127;47.516;8.596;2023-05-10T04:58:24;13.80;99.90
61253;DHT22;47127;47.516;8.596;2023-05-10T05:00:50;13.80;99.90
61253;DHT22;47127;47.516;8.596;2023-05-10T05:03:16;13.80;99.90
61253;DHT22;47127;47.516;8.596;2023-05-10T05:05:41;13.90;99.90
61253;DHT22;47127;47.516;8.596;2023-05-10T05:08:07;13.90;99.90
61253;DHT22;47127;47.516;8.596;2023-05-10T05:10:32;14.00;99.90
61253;DHT22;47127;47.516;8.596;2023-05-10T05:12:58;13.90;99.90
61253;DHT22;47127;47.516;8.596;2023-05-10T05:15:24;13.90;99.90
61253;DHT22;47127;47.516;8.596;2023-05-10T05:17:49;14.00;99.90
61253;DHT22;47127;47.516;8.596;2023-05-10T05:20:15;13.90;99.90
61253;DHT22;47127;47.516;8.596;2023-05-10T05:22:41;13.80;99.90
61253;DHT22;47127;47.516;8.596;2023-05-10T05:25:08;13.90;99.90
61253;DHT22;47127;47.516;8.596;2023-05-10T05:27:34;13.90;99.90
61253;DHT22;47127;47.516;8.596;2023-05-10T05:29:59;13.90;99.90
61253;DHT22;47127;47.516;8.596;2023-05-10T05:32:25;13.90;99.90
61253;DHT22;47127;47.516;8.596;2023-05-10T05:34:51;13.90;99.90
61253;DHT22;47127;47.516;8.596;2023-05-10T05:37:19;13.80;99.90
61253;DHT22;47127;47.516;8.596;2023-05-10T05:39:45;13.70;99.90
61253;DHT22;47127;47.516;8.596;2023-05-10T05:42:12;13.70;99.90
61253;DHT22;47127;47.516;8.596;2023-05-10T05:44:38;13.70;99.90
61253;DHT22;47127;47.516;8.596;2023-05-10T05:47:04;13.70;99.90
61253;DHT22;47127;47.516;8.596;2023-05-10T05:49:30;13.80;99.90
61253;DHT22;47127;47.516;8.596;2023-05-10T05:51:59;13.80;99.90
61253;DHT22;47127;47.516;8.596;2023-05-10T05:54:26;14.00;99.90
61253;DHT22;47127;47.516;8.596;2023-05-10T05:56:54;14.10;99.90
61253;DHT22;47127;47.516;8.596;2023-05-10T05:59:20;14.20;99.90
61253;DHT22;47127;47.516;8.596;2023-05-10T06:01:46;14.10;99.90
61253;DHT22;47127;47.516;8.596;2023-05-10T06:04:11;14.00;99.90
61253;DHT22;47127;47.516;8.596;2023-05-10T06:06:37;14.00;99.90
61253;DHT22;47127;47.516;8.596;2023-05-10T06:09:03;14.00;99.90
61253;DHT22;47127;47.516;8.596;2023-05-10T06:11:28;13.80;99.90
61253;DHT22;47127;47.516;8.596;2023-05-10T06:13:54;13.70;99.90
61253;DHT22;47127;47.516;8.596;2023-05-10T06:16:19;13.60;99.90
61253;DHT22;47127;47.516;8.596;2023-05-10T06:18:45;13.60;99.90
61253;DHT22;47127;47.516;8.596;2023-05-10T06:21:10;13.60;99.90
61253;DHT22;47127;47.516;8.596;2023-05-10T06:23:36;13.70;99.90
61253;DHT22;47127;47.516;8.596;2023-05-10T06:26:02;13.80;99.90
61253;DHT22;47127;47.516;8.596;2023-05-10T06:28:28;13.80;99.90
61253;DHT22;47127;47.516;8.596;2023-05-10T06:30:53;13.80;99.90
61253;DHT22;47127;47.516;8.596;2023-05-10T06:33:19;13.70;99.90
61253;DHT22;47127;47.516;8.596;2023-05-10T06:35:44;13.70;99.90
61253;DHT22;47127;47.516;8.596;2023-05-10T06:38:10;13.70;99.90
61253;DHT22;47127;47.516;8.596;2023-05-10T06:40:36;13.90;99.90
61253;DHT22;47127;47.516;8.596;2023-05-10T06:43:01;13.80;99.90
61253;DHT22;47127;47.516;8.596;2023-05-10T06:45:27;13.70;99.90
61253;DHT22;47127;47.516;8.596;2023-05-10T06:47:52;13.70;99.90
61253;DHT22;47127;47.516;8.596;2023-05-10T06:50:18;13.60;99.90
61253;DHT22;47127;47.516;8.596;2023-05-10T06:52:43;13.50;99.90
61253;DHT22;47127;47.516;8.596;2023-05-10T06:55:10;13.60;99.90
61253;DHT22;47127;47.516;8.596;2023-05-10T06:57:35;13.60;99.90
61253;DHT22;47127;47.516;8.596;2023-05-10T07:00:02;13.60;99.90
61253;DHT22;47127;47.516;8.596;2023-05-10T07:02:29;13.60;99.90
61253;DHT22;47127;47.516;8.596;2023-05-10T07:04:55;13.70;99.90
61253;DHT22;47127;47.516;8.596;2023-05-10T07:07:20;13.80;99.90
61253;DHT22;47127;47.516;8.596;2023-05-10T07:09:46;13.80;99.90
61253;DHT22;47127;47.516;8.596;2023-05-10T07:12:12;13.80;99.90
61253;DHT22;47127;47.516;8.596;2023-05-10T07:14:38;13.80;99.90
61253;DHT22;47127;47.516;8.596;2023-05-10T07:17:04;13.70;99.90
61253;DHT22;47127;47.516;8.596;2023-05-10T07:19:29;13.60;99.90
61253;DHT22;47127;47.516;8.596;2023-05-10T07:21:55;13.50;99.90
61253;DHT22;47127;47.516;8.596;2023-05-10T07:24:21;13.40;99.90
61253;DHT22;47127;47.516;8.596;2023-05-10T07:26:46;13.50;99.90
61253;DHT22;47127;47.516;8.596;2023-05-10T07:29:12;13.50;99.90
61253;DHT22;47127;47.516;8.596;2023-05-10T07:31:37;13.40;99.90
61253;DHT22;47127;47.516;8.596;2023-05-10T07:34:03;13.30;99.90
61253;DHT22;47127;47.516;8.596;2023-05-10T07:36:28;13.50;99.90
61253;DHT22;47127;47.516;8.596;2023-05-10T07:38:54;13.60;99.90
61253;DHT22;47127;47.516;8.596;2023-05-10T07:41:20;13.80;99.90
61253;DHT22;47127;47.516;8.596;2023-05-10T07:43:46;13.90;99.90
61253;DHT22;47127;47.516;8.596;2023-05-10T07:46:11;14.00;99.90
61253;DHT22;47127;47.516;8.596;2023-05-10T07:48:37;13.90;99.90
61253;DHT22;47127;47.516;8.596;2023-05-10T07:51:03;13.90;99.90
61253;DHT22;47127;47.516;8.596;2023-05-10T07:53:28;13.90;99.90
61253;DHT22;47127;47.516;8.596;2023-05-10T07:55:57;14.00;99.90
61253;DHT22;47127;47.516;8.596;2023-05-10T07:58:23;14.00;99.90
61253;DHT22;47127;47.516;8.596;2023-05-10T08:00:49;14.00;99.90
61253;DHT22;47127;47.516;8.596;2023-05-10T08:03:15;14.00;99.90
61253;DHT22;47127;47.516;8.596;2023-05-10T08:05:40;14.10;99.90
61253;DHT22;47127;47.516;8.596;2023-05-10T08:08:06;14.00;99.90
61253;DHT22;47127;47.516;8.596;2023-05-10T08:10:32;14.10;99.90
61253;DHT22;47127;47.516;8.596;2023-05-10T08:12:58;14.00;99.90
61253;DHT22;47127;47.516;8.596;2023-05-10T08:15:26;14.00;99.90
61253;DHT22;47127;47.516;8.596;2023-05-10T08:17:52;14.10;99.90
61253;DHT22;47127;47.516;8.596;2023-05-10T08:20:18;14.40;99.90
61253;DHT22;47127;47.516;8.596;2023-05-10T08:22:45;14.30;99.90
61253;DHT22;47127;47.516;8.596;2023-05-10T08:25:11;14.30;99.90
61253;DHT22;47127;47.516;8.596;2023-05-10T08:27:36;14.20;99.90
61253;DHT22;47127;47.516;8.596;2023-05-10T08:30:02;14.40;99.90
61253;DHT22;47127;47.516;8.596;2023-05-10T08:32:28;14.40;99.90
61253;DHT22;47127;47.516;8.596;2023-05-10T08:34:53;14.20;99.90
61253;DHT22;47127;47.516;8.596;2023-05-10T08:37:19;14.00;99.90
61253;DHT22;47127;47.516;8.596;2023-05-10T08:39:45;14.10;99.90
61253;DHT22;47127;47.516;8.596;2023-05-10T08:42:16;14.10;99.90
61253;DHT22;47127;47.516;8.596;2023-05-10T08:44:44;14.20;99.90
61253;DHT22;47127;47.516;8.596;2023-05-10T08:47:11;14.10;99.90
61253;DHT22;47127;47.516;8.596;2023-05-10T08:49:38;14.40;99.90
61253;DHT22;47127;47.516;8.596;2023-05-10T08:52:05;14.50;99.90
61253;DHT22;47127;47.516;8.596;2023-05-10T08:54:33;14.60;99.90
61253;DHT22;47127;47.516;8.596;2023-05-10T08:56:59;14.30;99.90
61253;DHT22;47127;47.516;8.596;2023-05-10T08:59:25;14.50;99.90
61253;DHT22;47127;47.516;8.596;2023-05-10T09:01:51;14.70;99.90
61253;DHT22;47127;47.516;8.596;2023-05-10T09:04:19;14.40;99.90
61253;DHT22;47127;47.516;8.596;2023-05-10T09:06:45;14.40;99.90
61253;DHT22;47127;47.516;8.596;2023-05-10T09:09:12;14.50;99.90
61253;DHT22;47127;47.516;8.596;2023-05-10T09:11:37;14.40;99.90
61253;DHT22;47127;47.516;8.596;2023-05-10T09:14:03;14.10;99.90
61253;DHT22;47127;47.516;8.596;2023-05-10T09:16:29;14.40;99.90
61253;DHT22;47127;47.516;8.596;2023-05-10T09:18:56;14.70;99.90
61253;DHT22;47127;47.516;8.596;2023-05-10T09:21:22;14.80;99.90
61253;DHT22;47127;47.516;8.596;2023-05-10T09:23:48;14.80;99.90
61253;DHT22;47127;47.516;8.596;2023-05-10T09:26:15;15.00;99.90
61253;DHT22;47127;47.516;8.596;2023-05-10T09:28:55;15.10;99.90
61253;DHT22;47127;47.516;8.596;2023-05-10T09:31:21;15.20;99.90
61253;DHT22;47127;47.516;8.596;2023-05-10T09:33:48;15.40;99.90
61253;DHT22;47127;47.516;8.596;2023-05-10T09:36:15;15.30;99.90
61253;DHT22;47127;47.516;8.596;2023-05-10T09:38:53;15.20;99.90
61253;DHT22;47127;47.516;8.596;2023-05-10T09:41:20;14.70;99.90
61253;DHT22;47127;47.516;8.596;2023-05-10T09:43:46;15.00;99.90
61253;DHT22;47127;47.516;8.596;2023-05-10T09:46:12;14.90;99.90
61253;DHT22;47127;47.516;8.596;2023-05-10T09:48:46;15.00;99.90
61253;DHT22;47127;47.516;8.596;2023-05-10T09:51:19;14.90;99.90
61253;DHT22;47127;47.516;8.596;2023-05-10T09:53:45;15.00;99.90
61253;DHT22;47127;47.516;8.596;2023-05-10T09:56:11;15.00;99.90
61253;DHT22;47127;47.516;8.596;2023-05-10T09:58:37;14.90;99.90
61253;DHT22;47127;47.516;8.596;2023-05-10T10:01:11;15.00;99.90
61253;DHT22;47127;47.516;8.596;2023-05-10T10:03:42;15.00;99.90
61253;DHT22;47127;47.516;8.596;2023-05-10T10:06:08;15.10;99.90
61253;DHT22;47127;47.516;8.596;2023-05-10T10:08:36;14.90;99.90
61253;DHT22;47127;47.516;8.596;2023-05-10T10:11:02;14.80;99.90
61253;DHT22;47127;47.516;8.596;2023-05-10T10:13:28;14.80;99.90
61253;DHT22;47127;47.516;8.596;2023-05-10T10:15:54;14.70;99.90
61253;DHT22;47127;47.516;8.596;2023-05-10T10:18:20;14.70;99.90
61253;DHT22;47127;47.516;8.596;2023-05-10T10:20:54;14.80;99.90
61253;DHT22;47127;47.516;8.596;2023-05-10T10:23:20;14.70;99.90
61253;DHT22;47127;47.516;8.596;2023-05-10T10:25:46;14.80;99.90
61253;DHT22;47127;47.516;8.596;2023-05-10T10:31:15;15.20;99.90
61253;DHT22;47127;47.516;8.596;2023-05-10T10:34:03;15.50;99.90
61253;DHT22;47127;47.516;8.596;2023-05-10T10:36:30;15.40;99.90
61253;DHT22;47127;47.516;8.596;2023-05-10T10:38:59;15.20;99.90
61253;DHT22;47127;47.516;8.596;2023-05-10T10:41:36;15.40;99.90
61253;DHT22;47127;47.516;8.596;2023-05-10T10:44:24;15.30;99.90
61253;DHT22;47127;47.516;8.596;2023-05-10T10:49:30;15.20;99.90
61253;DHT22;47127;47.516;8.596;2023-05-10T10:57:22;15.10;99.90
61253;DHT22;47127;47.516;8.596;2023-05-10T10:59:48;15.40;99.90
61253;DHT22;47127;47.516;8.596;2023-05-10T11:02:33;15.70;99.90
61253;DHT22;47127;47.516;8.596;2023-05-10T11:04:59;15.50;99.90
61253;DHT22;47127;47.516;8.596;2023-05-10T11:07:26;15.60;99.90
61253;DHT22;47127;47.516;8.596;2023-05-10T11:09:51;15.70;99.90
61253;DHT22;47127;47.516;8.596;2023-05-10T11:12:17;15.60;99.90
61253;DHT22;47127;47.516;8.596;2023-05-10T11:14:43;15.80;99.90
61253;DHT22;47127;47.516;8.596;2023-05-10T11:17:26;15.50;99.90
61253;DHT22;47127;47.516;8.596;2023-05-10T11:20:13;15.40;99.90
61253;DHT22;47127;47.516;8.596;2023-05-10T11:22:52;15.30;99.90
61253;DHT22;47127;47.516;8.596;2023-05-10T11:25:19;15.20;99.90
61253;DHT22;47127;47.516;8.596;2023-05-10T11:27:46;15.20;99.90
61253;DHT22;47127;47.516;8.596;2023-05-10T11:30:13;15.30;99.90
61253;DHT22;47127;47.516;8.596;2023-05-10T11:32:39;15.40;99.90
61253;DHT22;47127;47.516;8.596;2023-05-10T11:35:11;15.40;99.90
61253;DHT22;47127;47.516;8.596;2023-05-10T11:37:38;15.20;99.90
61253;DHT22;47127;47.516;8.596;2023-05-10T11:40:09;15.20;99.90
61253;DHT22;47127;47.516;8.596;2023-05-10T11:42:37;15.40;99.90
61253;DHT22;47127;47.516;8.596;2023-05-10T11:45:03;15.50;99.90
61253;DHT22;47127;47.516;8.596;2023-05-10T11:47:28;15.50;99.90
61253;DHT22;47127;47.516;8.596;2023-05-10T11:49:54;15.70;99.90
61253;DHT22;47127;47.516;8.596;2023-05-10T11:52:20;15.70;99.90
61253;DHT22;47127;47.516;8.596;2023-05-10T11:54:54;15.70;99.90
61253;DHT22;47127;47.516;8.596;2023-05-10T11:57:21;15.80;99.60
61253;DHT22;47127;47.516;8.596;2023-05-10T11:59:54;16.00;99.40
61253;DHT22;47127;47.516;8.596;2023-05-10T12:02:23;16.20;99.50
61253;DHT22;47127;47.516;8.596;2023-05-10T12:04:50;16.20;99.70
61253;DHT22;47127;47.516;8.596;2023-05-10T12:07:16;16.20;99.50
61253;DHT22;47127;47.516;8.596;2023-05-10T12:10:12;15.80;99.30
61253;DHT22;47127;47.516;8.596;2023-05-10T12:12:45;15.80;99.90
61253;DHT22;47127;47.516;8.596;2023-05-10T12:15:21;16.10;99.90
61253;DHT22;47127;47.516;8.596;2023-05-10T12:17:48;16.30;99.90
61253;DHT22;47127;47.516;8.596;2023-05-10T12:20:21;16.20;98.00
61253;DHT22;47127;47.516;8.596;2023-05-10T12:22:51;16.00;98.70
61253;DHT22;47127;47.516;8.596;2023-05-10T12:25:18;15.90;98.80
61253;DHT22;47127;47.516;8.596;2023-05-10T12:27:56;16.00;98.40
61253;DHT22;47127;47.516;8.596;2023-05-10T12:30:29;16.20;98.50
61253;DHT22;47127;47.516;8.596;2023-05-10T12:33:06;16.10;98.70
61253;DHT22;47127;47.516;8.596;2023-05-10T12:35:33;16.30;98.30
61253;DHT22;47127;47.516;8.596;2023-05-10T12:37:59;16.50;98.40
61253;DHT22;47127;47.516;8.596;2023-05-10T12:40:25;16.60;98.10
61253;DHT22;47127;47.516;8.596;2023-05-10T12:42:50;16.70;97.80
61253;DHT22;47127;47.516;8.596;2023-05-10T12:45:18;16.80;96.60
61253;DHT22;47127;47.516;8.596;2023-05-10T12:47:43;17.00;97.30
61253;DHT22;47127;47.516;8.596;2023-05-10T12:50:09;17.00;97.60
61253;DHT22;47127;47.516;8.596;2023-05-10T12:52:35;16.80;96.60
61253;DHT22;47127;47.516;8.596;2023-05-10T12:55:01;16.90;97.40
61253;DHT22;47127;47.516;8.596;2023-05-10T12:57:28;16.50;97.60
61253;DHT22;47127;47.516;8.596;2023-05-10T12:59:54;16.50;98.30
61253;DHT22;47127;47.516;8.596;2023-05-10T13:02:20;16.40;97.90
61253;DHT22;47127;47.516;8.596;2023-05-10T13:04:47;16.40;98.20
61253;DHT22;47127;47.516;8.596;2023-05-10T13:07:12;16.50;97.70
61253;DHT22;47127;47.516;8.596;2023-05-10T13:09:39;16.70;97.60
61253;DHT22;47127;47.516;8.596;2023-05-10T13:12:05;16.90;98.10
61253;DHT22;47127;47.516;8.596;2023-05-10T13:14:30;16.80;97.50
61253;DHT22;47127;47.516;8.596;2023-05-10T13:16:56;16.80;97.30
61253;DHT22;47127;47.516;8.596;2023-05-10T13:19:22;17.10;97.00
61253;DHT22;47127;47.516;8.596;2023-05-10T13:21:47;17.10;97.00
61253;DHT22;47127;47.516;8.596;2023-05-10T13:24:13;17.30;96.50
61253;DHT22;47127;47.516;8.596;2023-05-10T13:26:40;17.20;95.70
61253;DHT22;47127;47.516;8.596;2023-05-10T13:29:06;17.00;96.30
61253;DHT22;47127;47.516;8.596;2023-05-10T13:31:32;16.90;95.60
61253;DHT22;47127;47.516;8.596;2023-05-10T13:33:57;16.50;95.80
61253;DHT22;47127;47.516;8.596;2023-05-10T13:36:23;16.20;96.20
61253;DHT22;47127;47.516;8.596;2023-05-10T13:38:48;16.40;95.20
61253;DHT22;47127;47.516;8.596;2023-05-10T13:41:14;16.50;95.20
61253;DHT22;47127;47.516;8.596;2023-05-10T13:43:40;16.50;95.10
61253;DHT22;47127;47.516;8.596;2023-05-10T13:46:05;16.60;96.30
61253;DHT22;47127;47.516;8.596;2023-05-10T13:48:31;16.60;95.90
61253;DHT22;47127;47.516;8.596;2023-05-10T13:50:57;16.60;96.80
61253;DHT22;47127;47.516;8.596;2023-05-10T13:53:23;17.00;95.80
61253;DHT22;47127;47.516;8.596;2023-05-10T13:55:48;17.20;96.30
61253;DHT22;47127;47.516;8.596;2023-05-10T13:58:14;17.30;99.90
61253;DHT22;47127;47.516;8.596;2023-05-10T14:00:39;17.40;99.90
61253;DHT22;47127;47.516;8.596;2023-05-10T14:03:05;17.40;99.90
61253;DHT22;47127;47.516;8.596;2023-05-10T14:05:32;17.20;99.90
61253;DHT22;47127;47.516;8.596;2023-05-10T14:07:57;17.10;99.90
61253;DHT22;47127;47.516;8.596;2023-05-10T14:10:23;17.10;99.90
61253;DHT22;47127;47.516;8.596;2023-05-10T14:12:49;17.30;99.90
61253;DHT22;47127;47.516;8.596;2023-05-10T14:15:15;17.10;99.90
61253;DHT22;47127;47.516;8.596;2023-05-10T14:17:40;17.20;99.90
61253;DHT22;47127;47.516;8.596;2023-05-10T14:20:06;17.20;99.90
61253;DHT22;47127;47.516;8.596;2023-05-10T14:22:32;17.20;99.90
61253;DHT22;47127;47.516;8.596;2023-05-10T14:24:58;17.00;99.90
61253;DHT22;47127;47.516;8.596;2023-05-10T14:27:24;16.90;99.90
61253;DHT22;47127;47.516;8.596;2023-05-10T14:29:51;17.00;99.90
61253;DHT22;47127;47.516;8.596;2023-05-10T14:32:16;17.00;99.90
61253;DHT22;47127;47.516;8.596;2023-05-10T14:34:42;17.10;99.90
61253;DHT22;47127;47.516;8.596;2023-05-10T14:37:10;17.20;99.90
61253;DHT22;47127;47.516;8.596;2023-05-10T14:39:35;17.10;99.90
61253;DHT22;47127;47.516;8.596;2023-05-10T14:42:01;16.90;99.90
61253;DHT22;47127;47.516;8.596;2023-05-10T14:44:27;16.70;99.90
61253;DHT22;47127;47.516;8.596;2023-05-10T14:46:53;16.60;99.90
61253;DHT22;47127;47.516;8.596;2023-05-10T14:49:19;16.40;99.90
61253;DHT22;47127;47.516;8.596;2023-05-10T14:51:44;16.20;99.90
61253;DHT22;47127;47.516;8.596;2023-05-10T14:54:10;16.30;99.90
61253;DHT22;47127;47.516;8.596;2023-05-10T14:56:36;16.30;99.90
61253;DHT22;47127;47.516;8.596;2023-05-10T14:59:05;16.30;99.90
61253;DHT22;47127;47.516;8.596;2023-05-10T15:01:31;16.20;99.90
61253;DHT22;47127;47.516;8.596;2023-05-10T15:03:58;16.10;99.90
61253;DHT22;47127;47.516;8.596;2023-05-10T15:06:30;16.00;99.90
61253;DHT22;47127;47.516;8.596;2023-05-10T15:08:55;16.10;99.90
61253;DHT22;47127;47.516;8.596;2023-05-10T15:11:21;16.20;99.90
61253;DHT22;47127;47.516;8.596;2023-05-10T15:13:48;16.10;99.90
61253;DHT22;47127;47.516;8.596;2023-05-10T15:16:14;16.20;99.90
61253;DHT22;47127;47.516;8.596;2023-05-10T15:18:39;16.20;99.90
61253;DHT22;47127;47.516;8.596;2023-05-10T15:21:05;16.20;99.90
61253;DHT22;47127;47.516;8.596;2023-05-10T15:23:30;16.20;99.90
61253;DHT22;47127;47.516;8.596;2023-05-10T15:25:57;16.20;99.90
61253;DHT22;47127;47.516;8.596;2023-05-10T15:28:22;16.20;99.90
61253;DHT22;47127;47.516;8.596;2023-05-10T15:30:48;16.20;99.90
61253;DHT22;47127;47.516;8.596;2023-05-10T15:33:14;16.00;99.90
61253;DHT22;47127;47.516;8.596;2023-05-10T15:35:39;15.90;99.90
61253;DHT22;47127;47.516;8.596;2023-05-10T15:38:05;15.80;99.90
61253;DHT22;47127;47.516;8.596;2023-05-10T15:40:31;15.80;99.90
61253;DHT22;47127;47.516;8.596;2023-05-10T15:42:56;15.60;99.90
61253;DHT22;47127;47.516;8.596;2023-05-10T15:45:22;15.70;99.90
61253;DHT22;47127;47.516;8.596;2023-05-10T15:47:48;15.80;99.90
61253;DHT22;47127;47.516;8.596;2023-05-10T15:50:15;16.00;99.90